Time;durP1;ratioP1;P1;durP2;ratioP2;P2;SDS_P1;SDS_P2;PMS_P1;PMS_P2;Temp;Humidity;BMP_temperature;BMP_pressure;BME280_temperature;BME280_humidity;BME280_pressure;Samples;Min_cycle;Max_cycle;Signal;HPM_P1;HPM_P2
2020/12/03 00:00:43;;;;;;;45.95;18.25;;;2.20;99.90;;;;;;5028259;28;20198;-70
2020/12/03 00:06:35;;;;;;;42.05;17.17;;;2.20;99.90;;;;;;5013403;28;20237;-70
2020/12/03 00:09:04;;;;;;;46.95;17.55;;;2.20;99.90;;;;;;5025115;28;20209;-71
2020/12/03 00:14:51;;;;;;;38.58;17.27;;;2.20;99.90;;;;;;5005800;28;20267;-70
2020/12/03 00:17:17;;;;;;;46.13;17.73;;;2.20;99.90;;;;;;5022304;28;20194;-70
2020/12/03 00:19:43;;;;;;;40.50;16.10;;;2.20;99.90;;;;;;5026367;28;20339;-70
2020/12/03 00:22:08;;;;;;;40.70;16.80;;;2.10;99.90;;;;;;5013641;28;20218;-70
2020/12/03 00:24:34;;;;;;;38.85;16.60;;;2.20;99.90;;;;;;5028999;28;20198;-69
2020/12/03 00:27:10;;;;;;;41.40;16.27;;;2.10;99.90;;;;;;5030972;28;20210;-70
2020/12/03 00:29:37;;;;;;;43.95;16.48;;;2.10;99.90;;;;;;5027869;28;20545;-70
2020/12/03 00:32:05;;;;;;;40.33;15.27;;;2.10;99.90;;;;;;5030371;28;20356;-69
2020/12/03 00:34:30;;;;;;;43.53;16.20;;;2.10;99.90;;;;;;5028424;28;20232;-71
2020/12/03 00:36:56;;;;;;;41.78;16.33;;;2.10;99.90;;;;;;5033689;28;20301;-70
2020/12/03 00:39:22;;;;;;;40.42;16.50;;;2.00;99.90;;;;;;5007688;28;20206;-70
2020/12/03 00:41:51;;;;;;;38.00;15.32;;;2.00;99.90;;;;;;5033502;28;20194;-69
2020/12/03 00:44:18;;;;;;;46.72;17.02;;;2.00;99.90;;;;;;5031057;28;20246;-70
2020/12/03 00:46:44;;;;;;;42.75;17.45;;;2.00;99.90;;;;;;5025970;28;20634;-71
2020/12/03 00:49:10;;;;;;;39.22;15.77;;;2.00;99.90;;;;;;5012301;28;20580;-71
2020/12/03 00:51:35;;;;;;;35.70;15.93;;;2.00;99.90;;;;;;5026811;28;20197;-69
2020/12/03 00:54:01;;;;;;;39.33;15.43;;;2.10;99.90;;;;;;5030329;28;20198;-69
2020/12/03 00:56:27;;;;;;;38.53;16.52;;;2.00;99.90;;;;;;5027918;28;20736;-70
2020/12/03 00:58:53;;;;;;;37.42;15.90;;;2.00;99.90;;;;;;5030135;28;22338;-70
2020/12/03 01:01:20;;;;;;;46.53;16.73;;;2.00;99.90;;;;;;5028982;28;20198;-69
2020/12/03 01:03:48;;;;;;;45.55;17.20;;;2.00;99.90;;;;;;5030912;28;20190;-69
2020/12/03 01:06:14;;;;;;;40.90;16.13;;;1.90;99.90;;;;;;5044150;28;20274;-70
2020/12/03 01:08:39;;;;;;;39.85;16.50;;;1.90;99.90;;;;;;5048648;28;20390;-69
2020/12/03 01:11:05;;;;;;;38.97;15.65;;;1.90;99.90;;;;;;5052436;28;20722;-70
2020/12/03 01:13:31;;;;;;;37.00;15.32;;;1.90;99.90;;;;;;5050901;28;20504;-69
2020/12/03 01:15:58;;;;;;;38.80;16.35;;;1.80;99.90;;;;;;5032886;28;20209;-70
2020/12/03 01:18:24;;;;;;;39.25;15.45;;;1.80;99.90;;;;;;5047025;28;20201;-70
2020/12/03 01:20:49;;;;;;;43.63;16.40;;;1.80;99.90;;;;;;5048284;28;20204;-70
2020/12/03 01:23:15;;;;;;;43.67;16.70;;;1.80;99.90;;;;;;5049409;28;20238;-71
2020/12/03 01:25:40;;;;;;;43.55;16.33;;;1.80;99.90;;;;;;5031875;28;20714;-68
2020/12/03 01:28:06;;;;;;;45.85;17.15;;;1.80;99.90;;;;;;5045858;28;20205;-71
2020/12/03 01:30:32;;;;;;;42.28;15.30;;;1.80;99.90;;;;;;5035252;28;20482;-70
2020/12/03 01:32:57;;;;;;;42.15;16.30;;;1.70;99.90;;;;;;5034204;28;20204;-69
2020/12/03 01:35:23;;;;;;;38.50;15.35;;;1.70;99.90;;;;;;5043920;28;20197;-70
2020/12/03 01:37:51;;;;;;;37.50;15.38;;;1.70;99.90;;;;;;5054248;28;20746;-70
2020/12/03 01:40:22;;;;;;;39.20;15.43;;;1.70;99.90;;;;;;5036955;28;20200;-70
2020/12/03 01:42:48;;;;;;;36.50;15.10;;;1.70;99.90;;;;;;5051564;28;22406;-72
2020/12/03 01:45:59;;;;;;;36.65;15.25;;;1.70;99.90;;;;;;5031097;28;20316;-71
2020/12/03 01:48:45;;;;;;;38.30;14.43;;;1.70;99.90;;;;;;5036676;28;20246;-69
2020/12/03 01:51:23;;;;;;;37.20;14.55;;;1.60;99.90;;;;;;5045084;28;20241;-69
2020/12/03 01:53:53;;;;;;;42.72;15.80;;;1.70;99.90;;;;;;5047743;28;20744;-70
2020/12/03 01:56:31;;;;;;;37.00;15.48;;;1.60;99.90;;;;;;5032788;28;20224;-70
2020/12/03 01:58:58;;;;;;;41.42;15.10;;;1.60;99.90;;;;;;5047794;28;20262;-70
2020/12/03 02:01:25;;;;;;;40.67;14.90;;;1.50;99.90;;;;;;5037621;23;20772;-74
2020/12/03 02:03:50;;;;;;;35.45;15.15;;;1.50;99.90;;;;;;5014161;28;20196;-72
2020/12/03 02:06:29;;;;;;;41.38;15.18;;;1.50;99.90;;;;;;5016994;28;20674;-72
2020/12/03 02:08:55;;;;;;;41.28;16.02;;;1.50;99.90;;;;;;5016397;28;20202;-73
2020/12/03 02:11:23;;;;;;;38.92;15.65;;;1.40;99.90;;;;;;5015965;28;20594;-74
2020/12/03 02:13:55;;;;;;;42.40;15.65;;;1.40;99.90;;;;;;5012835;28;20199;-75
2020/12/03 02:16:23;;;;;;;38.75;14.63;;;1.40;99.90;;;;;;5016979;28;20637;-74
2020/12/03 02:18:48;;;;;;;41.15;15.52;;;1.40;99.90;;;;;;4996800;28;20198;-72
2020/12/03 02:21:15;;;;;;;36.83;15.45;;;1.40;99.90;;;;;;5014694;28;20271;-73
2020/12/03 02:23:40;;;;;;;37.22;15.00;;;1.40;99.90;;;;;;5013499;28;20194;-73
2020/12/03 02:26:06;;;;;;;44.55;16.00;;;1.40;99.90;;;;;;5013671;28;20218;-72
2020/12/03 02:28:33;;;;;;;41.10;16.55;;;1.40;99.90;;;;;;5012829;28;20264;-73
2020/12/03 02:30:58;;;;;;;43.05;15.32;;;1.40;99.90;;;;;;5012343;28;20660;-75
2020/12/03 02:33:24;;;;;;;40.42;15.70;;;1.40;99.90;;;;;;5012339;28;20202;-73
2020/12/03 02:35:50;;;;;;;41.95;15.75;;;1.30;99.90;;;;;;5013003;28;20236;-73
2020/12/03 02:38:16;;;;;;;41.00;16.13;;;1.30;99.90;;;;;;5011850;28;20202;-75
2020/12/03 02:40:42;;;;;;;43.10;15.60;;;1.30;99.90;;;;;;5012668;28;20247;-73
2020/12/03 02:43:07;;;;;;;41.85;15.95;;;1.40;99.90;;;;;;4994713;28;20743;-74
2020/12/03 02:45:33;;;;;;;41.90;15.20;;;1.40;99.90;;;;;;5015656;28;20271;-72
2020/12/03 02:47:59;;;;;;;38.38;15.18;;;1.30;99.90;;;;;;5015755;28;20213;-74
2020/12/03 02:50:24;;;;;;;37.50;14.88;;;1.30;99.90;;;;;;4998263;28;20251;-73
2020/12/03 02:52:50;;;;;;;38.08;15.55;;;1.30;99.90;;;;;;4998474;28;20213;-73
2020/12/03 02:55:16;;;;;;;40.95;15.77;;;1.20;99.90;;;;;;4996749;28;20249;-74
2020/12/03 02:57:41;;;;;;;38.33;14.20;;;1.10;99.90;;;;;;4998984;28;20264;-73
2020/12/03 03:00:07;;;;;;;43.08;15.18;;;1.10;99.90;;;;;;5004604;28;20201;-72
2020/12/03 03:02:33;;;;;;;37.97;14.80;;;1.10;99.90;;;;;;5014064;28;20224;-73
2020/12/03 03:04:59;;;;;;;45.50;15.90;;;1.10;99.90;;;;;;5017352;28;20260;-73
2020/12/03 03:07:25;;;;;;;38.75;15.15;;;1.10;99.90;;;;;;5016471;28;21005;-73
2020/12/03 03:09:50;;;;;;;34.67;14.43;;;1.10;99.90;;;;;;5017793;28;20199;-73
2020/12/03 03:12:16;;;;;;;35.60;14.98;;;1.10;99.90;;;;;;5020068;28;20671;-74
2020/12/03 03:14:42;;;;;;;35.53;14.75;;;1.00;99.90;;;;;;5016613;28;20653;-75
2020/12/03 03:17:07;;;;;;;36.10;14.48;;;1.00;99.90;;;;;;5014286;28;20203;-74
2020/12/03 03:19:33;;;;;;;42.65;15.32;;;1.00;99.90;;;;;;5016710;28;20205;-74
2020/12/03 03:22:00;;;;;;;39.42;15.25;;;1.00;99.90;;;;;;5018834;28;20194;-73
2020/12/03 03:24:25;;;;;;;35.50;14.98;;;1.00;99.90;;;;;;5002600;28;20199;-73
2020/12/03 03:26:51;;;;;;;41.53;15.60;;;1.10;99.90;;;;;;5017703;28;20207;-74
2020/12/03 03:29:17;;;;;;;43.97;15.70;;;1.10;99.90;;;;;;5016957;28;20205;-73
2020/12/03 03:31:43;;;;;;;47.50;16.25;;;1.10;99.90;;;;;;5015863;28;20190;-73
2020/12/03 03:34:09;;;;;;;41.28;15.32;;;1.10;99.90;;;;;;5002687;28;20767;-73
2020/12/03 03:36:35;;;;;;;39.75;15.85;;;1.10;99.90;;;;;;5017560;28;20195;-74
2020/12/03 03:39:02;;;;;;;46.08;16.58;;;1.10;99.90;;;;;;5017787;28;20410;-74
2020/12/03 03:41:28;;;;;;;40.70;14.90;;;1.10;99.90;;;;;;5000037;28;20205;-73
2020/12/03 03:43:54;;;;;;;49.38;17.40;;;1.10;99.90;;;;;;5017651;28;20663;-72
2020/12/03 03:46:20;;;;;;;42.75;15.93;;;1.20;99.90;;;;;;5016704;28;20206;-72
2020/12/03 03:48:46;;;;;;;44.88;16.20;;;1.20;99.90;;;;;;5019259;28;20209;-74
2020/12/03 03:51:12;;;;;;;43.00;16.88;;;1.20;99.90;;;;;;5021297;28;20195;-73
2020/12/03 03:53:38;;;;;;;50.58;18.15;;;1.20;99.90;;;;;;4998331;28;20337;-73
2020/12/03 03:56:04;;;;;;;46.70;16.95;;;1.20;99.90;;;;;;5019134;28;20206;-72
2020/12/03 03:58:30;;;;;;;44.97;17.30;;;1.30;99.90;;;;;;5015164;28;20691;-74
2020/12/03 04:00:55;;;;;;;49.45;18.30;;;1.30;99.90;;;;;;5005539;28;20229;-72
2020/12/03 04:03:22;;;;;;;49.88;17.48;;;1.30;99.90;;;;;;5018385;28;20198;-73
2020/12/03 04:05:51;;;;;;;52.47;19.15;;;1.40;99.90;;;;;;4999418;28;20691;-73
2020/12/03 04:08:17;;;;;;;53.03;18.25;;;1.40;99.90;;;;;;5017199;28;20213;-73
2020/12/03 04:10:45;;;;;;;45.55;18.48;;;1.50;99.90;;;;;;5020899;28;20219;-74
2020/12/03 04:13:14;;;;;;;46.45;17.75;;;1.50;99.90;;;;;;5022140;28;20755;-74
2020/12/03 04:15:39;;;;;;;52.88;19.42;;;1.50;99.90;;;;;;4998786;28;20199;-72
2020/12/03 04:18:05;;;;;;;48.03;17.55;;;1.50;99.90;;;;;;5003445;28;20202;-72
2020/12/03 04:20:31;;;;;;;43.63;16.48;;;1.60;99.90;;;;;;5018574;28;20229;-72
2020/12/03 04:22:57;;;;;;;45.55;17.85;;;1.60;99.90;;;;;;5001699;28;21739;-73
2020/12/03 04:25:23;;;;;;;42.28;16.25;;;1.60;99.90;;;;;;5018446;28;20233;-73
2020/12/03 04:27:48;;;;;;;41.70;14.95;;;1.60;99.90;;;;;;5020403;28;20264;-72
2020/12/03 04:30:14;;;;;;;44.28;15.55;;;1.60;99.90;;;;;;5016307;28;20280;-74
2020/12/03 04:32:40;;;;;;;36.53;15.30;;;1.60;99.90;;;;;;4997129;28;20277;-73
2020/12/03 04:35:08;;;;;;;35.97;14.98;;;1.60;99.90;;;;;;5002040;28;20197;-73
2020/12/03 04:37:33;;;;;;;41.00;16.08;;;1.60;99.90;;;;;;5018360;28;20248;-72
2020/12/03 04:39:59;;;;;;;39.97;16.05;;;1.70;99.90;;;;;;4999508;28;20297;-72
2020/12/03 04:42:31;;;;;;;41.65;15.75;;;1.60;99.90;;;;;;4995950;28;20650;-72
2020/12/03 04:45:14;;;;;;;42.25;16.15;;;1.70;99.90;;;;;;5013338;28;20264;-72
2020/12/03 04:48:20;;;;;;;43.33;16.25;;;1.60;99.90;;;;;;5016302;28;20206;-73
2020/12/03 04:51:13;;;;;;;45.63;15.30;;;1.70;99.90;;;;;;5015573;28;20191;-72
2020/12/03 04:54:02;;;;;;;38.75;15.73;;;1.70;99.90;;;;;;5000168;28;20685;-74
2020/12/03 04:57:02;;;;;;;42.05;15.77;;;1.70;99.90;;;;;;5015137;28;20190;-73
2020/12/03 04:59:37;;;;;;;42.00;15.40;;;1.70;99.90;;;;;;5010546;28;20206;-73
2020/12/03 05:02:31;;;;;;;50.40;17.00;;;1.70;99.90;;;;;;5012969;28;20229;-74
2020/12/03 05:05:16;;;;;;;47.30;16.45;;;1.70;99.90;;;;;;4984440;28;20211;-73
2020/12/03 05:07:53;;;;;;;47.67;16.27;;;1.70;99.90;;;;;;5015646;28;20312;-73
2020/12/03 05:10:33;;;;;;;51.92;16.85;;;1.70;99.90;;;;;;5015375;28;20777;-74
2020/12/03 05:13:00;;;;;;;44.17;16.33;;;1.70;99.90;;;;;;5018961;28;20209;-74
2020/12/03 05:15:33;;;;;;;50.83;16.77;;;1.70;99.90;;;;;;5000890;28;20285;-74
2020/12/03 05:18:36;;;;;;;47.00;17.35;;;1.70;99.90;;;;;;5020675;28;21508;-74
2020/12/03 05:21:03;;;;;;;46.08;16.02;;;1.70;99.90;;;;;;5002222;28;20201;-74
2020/12/03 05:23:34;;;;;;;40.67;16.88;;;1.80;99.90;;;;;;5013342;28;20209;-75
2020/12/03 05:26:10;;;;;;;48.55;16.52;;;1.80;99.90;;;;;;5015782;28;20233;-73
2020/12/03 05:28:51;;;;;;;39.78;16.42;;;1.80;99.90;;;;;;5015787;28;20229;-73
2020/12/03 05:31:35;;;;;;;39.78;16.58;;;1.80;99.90;;;;;;4999157;28;20191;-73
2020/12/03 05:34:18;;;;;;;45.47;16.40;;;1.80;99.90;;;;;;5000852;28;20626;-73
2020/12/03 05:36:53;;;;;;;42.53;16.08;;;1.80;99.90;;;;;;4993956;28;20230;-73
2020/12/03 05:39:31;;;;;;;41.40;15.93;;;1.80;99.90;;;;;;5015131;28;20255;-75
2020/12/03 05:42:01;;;;;;;42.15;16.83;;;1.80;99.90;;;;;;5013028;28;20962;-72
2020/12/03 05:44:37;;;;;;;47.42;17.00;;;1.80;99.90;;;;;;5015040;28;20281;-73
2020/12/03 05:47:16;;;;;;;40.42;15.27;;;1.80;99.90;;;;;;5004310;28;20216;-72
2020/12/03 05:49:42;;;;;;;40.25;15.82;;;1.80;99.90;;;;;;5000689;28;20221;-74
2020/12/03 05:52:16;;;;;;;43.78;16.15;;;1.80;99.90;;;;;;5001537;28;20216;-73
2020/12/03 05:55:15;;;;;;;46.53;16.08;;;1.80;99.90;;;;;;5014556;28;20193;-73
2020/12/03 05:57:43;;;;;;;38.47;15.57;;;1.80;99.90;;;;;;5018755;28;20206;-73
2020/12/03 06:00:12;;;;;;;41.03;16.13;;;1.80;99.90;;;;;;5021491;28;20198;-73
2020/12/03 06:02:55;;;;;;;39.85;16.25;;;1.70;99.90;;;;;;5010357;28;20222;-74
2020/12/03 06:05:36;;;;;;;48.50;15.75;;;1.70;99.90;;;;;;5011137;28;20261;-74
2020/12/03 06:08:30;;;;;;;40.58;16.17;;;1.70;99.90;;;;;;5014095;28;20799;-73
2020/12/03 06:11:16;;;;;;;45.17;16.23;;;1.80;99.90;;;;;;5018881;28;20263;-75
2020/12/03 06:13:42;;;;;;;38.28;15.60;;;1.80;99.90;;;;;;5020608;28;20186;-73
2020/12/03 06:16:33;;;;;;;47.45;16.25;;;1.80;99.90;;;;;;5019551;28;20259;-73
2020/12/03 06:19:02;;;;;;;46.30;16.45;;;1.80;99.90;;;;;;5006252;28;20214;-75
2020/12/03 06:21:41;;;;;;;42.88;16.40;;;1.80;99.90;;;;;;5004332;28;20238;-73
2020/12/03 06:24:25;;;;;;;41.97;15.65;;;1.70;99.90;;;;;;5022389;28;20273;-73
2020/12/03 06:27:13;;;;;;;45.85;17.13;;;1.70;99.90;;;;;;5025358;28;20190;-72
2020/12/03 06:29:51;;;;;;;51.13;17.42;;;1.70;99.90;;;;;;5010143;28;20293;-73
2020/12/03 06:32:40;;;;;;;43.28;16.67;;;1.70;99.90;;;;;;5028163;28;20205;-72
2020/12/03 06:35:24;;;;;;;37.60;16.33;;;1.70;99.90;;;;;;5022342;28;20229;-75
2020/12/03 06:38:11;;;;;;;45.35;15.85;;;1.70;99.90;;;;;;5021426;28;20588;-73
2020/12/03 06:40:42;;;;;;;41.15;16.63;;;1.60;99.90;;;;;;5022532;28;20213;-73
2020/12/03 06:43:22;;;;;;;43.25;16.17;;;1.60;99.90;;;;;;5025618;28;20202;-74
2020/12/03 06:46:00;;;;;;;54.38;17.58;;;1.60;99.90;;;;;;5026381;28;20344;-73
2020/12/03 06:49:16;;;;;;;42.38;15.63;;;1.50;99.90;;;;;;5028493;28;20687;-73
2020/12/03 06:51:41;;;;;;;49.67;17.20;;;1.50;99.90;;;;;;4963183;28;20196;-74
2020/12/03 06:54:13;;;;;;;42.22;16.10;;;1.50;99.90;;;;;;5002267;28;20659;-72
2020/12/03 06:57:02;;;;;;;41.78;16.75;;;1.40;99.90;;;;;;5023591;28;20194;-72
2020/12/03 07:00:09;;;;;;;46.75;17.63;;;1.50;99.90;;;;;;5027732;28;20190;-73
2020/12/03 07:03:02;;;;;;;41.80;15.93;;;1.40;99.90;;;;;;5025640;28;20222;-75
2020/12/03 07:05:39;;;;;;;46.55;17.45;;;1.40;99.90;;;;;;5018750;28;20269;-73
2020/12/03 07:08:23;;;;;;;42.83;16.10;;;1.40;99.90;;;;;;5023497;28;20313;-73
2020/12/03 07:11:27;;;;;;;42.85;15.80;;;1.40;99.90;;;;;;5006379;28;20719;-74
2020/12/03 07:14:23;;;;;;;43.72;15.57;;;1.30;99.90;;;;;;5005357;28;20209;-74
2020/12/03 07:17:13;;;;;;;40.38;16.05;;;1.30;99.90;;;;;;5019626;28;20199;-75
2020/12/03 07:20:00;;;;;;;46.00;15.38;;;1.30;99.90;;;;;;5004170;28;20328;-73
2020/12/03 07:22:54;;;;;;;50.15;18.27;;;1.20;99.90;;;;;;5021440;28;20201;-74
2020/12/03 07:25:20;;;;;;;42.35;16.85;;;1.20;99.90;;;;;;5023576;28;20611;-75
2020/12/03 07:28:02;;;;;;;47.50;17.42;;;1.20;99.90;;;;;;5025576;28;20210;-74
2020/12/03 07:30:30;;;;;;;45.40;17.10;;;1.20;99.90;;;;;;5012590;28;20198;-75
2020/12/03 07:33:03;;;;;;;42.22;16.90;;;1.20;99.90;;;;;;5004406;28;20656;-75
2020/12/03 07:35:46;;;;;;;45.22;17.67;;;1.20;99.90;;;;;;5002958;28;20197;-77
2020/12/03 07:38:19;;;;;;;42.65;17.42;;;1.30;99.90;;;;;;5005921;28;20202;-73
2020/12/03 07:40:50;;;;;;;48.78;17.38;;;1.30;99.90;;;;;;5025276;28;20198;-73
2020/12/03 07:43:39;;;;;;;46.58;17.23;;;1.30;99.90;;;;;;5025642;28;20229;-72
2020/12/03 07:46:23;;;;;;;42.65;16.80;;;1.30;99.90;;;;;;5021682;28;20210;-74
2020/12/03 07:48:49;;;;;;;49.75;17.77;;;1.20;99.90;;;;;;5025682;28;20630;-74
2020/12/03 07:51:17;;;;;;;46.88;16.67;;;1.20;99.90;;;;;;5001428;28;20234;-73
2020/12/03 07:53:44;;;;;;;46.20;15.90;;;1.20;99.90;;;;;;5020074;28;20194;-74
2020/12/03 07:56:31;;;;;;;43.17;17.65;;;1.20;99.90;;;;;;5018384;28;20194;-74
2020/12/03 07:59:23;;;;;;;40.45;15.43;;;1.20;99.90;;;;;;5026084;28;20205;-73
2020/12/03 08:01:50;;;;;;;37.67;15.82;;;1.10;99.90;;;;;;5004162;28;20310;-72
2020/12/03 08:04:22;;;;;;;36.42;15.38;;;1.10;99.90;;;;;;5021708;28;20229;-72
2020/12/03 08:07:00;;;;;;;40.38;15.75;;;1.00;99.90;;;;;;5023341;28;20202;-72
2020/12/03 08:09:35;;;;;;;40.05;16.65;;;1.00;99.90;;;;;;5026067;28;20232;-72
2020/12/03 08:12:03;;;;;;;40.25;15.25;;;0.90;99.90;;;;;;5005035;28;20230;-73
2020/12/03 08:14:35;;;;;;;39.03;14.98;;;0.90;99.90;;;;;;5007628;28;20305;-72
2020/12/03 08:17:04;;;;;;;41.45;16.50;;;0.90;99.90;;;;;;4998404;28;20206;-72
2020/12/03 08:19:32;;;;;;;43.17;17.27;;;0.90;99.90;;;;;;5021935;28;20287;-73
2020/12/03 08:21:58;;;;;;;37.83;16.05;;;0.90;99.90;;;;;;5017590;28;20195;-75
2020/12/03 08:24:30;;;;;;;39.45;16.27;;;0.80;99.90;;;;;;5002010;28;20194;-77
2020/12/03 08:27:02;;;;;;;43.83;16.65;;;0.80;99.90;;;;;;5010134;28;20214;-76
2020/12/03 08:29:37;;;;;;;43.03;16.15;;;0.70;99.90;;;;;;5002964;28;20281;-75
2020/12/03 08:32:03;;;;;;;39.42;17.13;;;0.70;99.90;;;;;;5007499;28;20680;-74
2020/12/03 08:34:33;;;;;;;40.10;16.75;;;0.70;99.90;;;;;;5024336;28;20201;-75
2020/12/03 08:36:59;;;;;;;44.55;16.92;;;0.70;99.90;;;;;;5018849;28;20566;-74
2020/12/03 08:39:25;;;;;;;41.03;16.48;;;0.70;99.90;;;;;;5024071;28;20186;-76
2020/12/03 08:41:52;;;;;;;36.63;15.75;;;0.60;99.90;;;;;;5006665;28;20248;-75
2020/12/03 08:44:18;;;;;;;42.10;17.10;;;0.60;99.90;;;;;;5022377;28;20198;-76
2020/12/03 08:46:45;;;;;;;46.22;17.17;;;0.60;99.90;;;;;;5022783;28;20222;-75
2020/12/03 08:49:47;;;;;;;40.95;17.70;;;0.60;99.90;;;;;;5021732;28;20195;-75
2020/12/03 08:52:05;;;;;;;40.50;16.40;;;0.60;99.90;;;;;;5022775;28;20275;-73
2020/12/03 08:54:32;;;;;;;43.47;17.52;;;0.50;99.90;;;;;;5024761;28;20210;-72
2020/12/03 08:57:02;;;;;;;46.38;18.08;;;0.50;99.90;;;;;;5021101;28;20225;-71
2020/12/03 08:59:33;;;;;;;42.45;16.70;;;0.50;99.90;;;;;;5018152;28;20220;-72
2020/12/03 09:02:10;;;;;;;46.15;18.00;;;0.50;99.90;;;;;;5025990;28;20222;-73
2020/12/03 09:04:38;;;;;;;46.65;17.10;;;0.50;99.90;;;;;;5019124;28;20527;-74
2020/12/03 09:07:09;;;;;;;45.35;17.33;;;0.50;99.90;;;;;;5005852;28;20752;-76
2020/12/03 09:09:37;;;;;;;42.42;16.77;;;0.50;99.90;;;;;;5021522;28;20194;-75
2020/12/03 09:12:06;;;;;;;40.38;17.08;;;0.50;99.90;;;;;;5003930;28;20259;-72
2020/12/03 09:14:36;;;;;;;51.58;18.67;;;0.40;99.90;;;;;;5023861;28;20194;-73
2020/12/03 09:17:09;;;;;;;43.35;16.30;;;0.50;99.90;;;;;;5023034;28;20201;-75
2020/12/03 09:19:35;;;;;;;43.13;17.85;;;0.40;99.90;;;;;;5019752;28;20259;-76
2020/12/03 09:22:02;;;;;;;48.28;19.35;;;0.50;99.90;;;;;;5023660;28;20198;-73
2020/12/03 09:24:28;;;;;;;44.72;17.27;;;0.50;99.90;;;;;;5020091;28;20190;-73
2020/12/03 09:27:01;;;;;;;47.75;17.70;;;0.50;99.90;;;;;;5002294;28;20259;-75
2020/12/03 09:29:27;;;;;;;43.20;17.52;;;0.40;99.90;;;;;;5025077;28;20190;-75
2020/12/03 09:32:04;;;;;;;51.45;18.50;;;0.40;99.90;;;;;;5017961;28;20664;-76
2020/12/03 09:34:33;;;;;;;39.67;16.23;;;0.40;99.90;;;;;;5017951;28;20194;-74
2020/12/03 09:37:02;;;;;;;48.30;17.48;;;0.40;99.90;;;;;;5023446;28;20210;-72
2020/12/03 09:39:31;;;;;;;48.45;19.27;;;0.40;99.90;;;;;;5006347;28;20705;-73
2020/12/03 09:41:58;;;;;;;48.08;17.70;;;0.40;99.90;;;;;;5020066;28;20511;-74
2020/12/03 09:44:25;;;;;;;47.88;17.27;;;0.40;99.90;;;;;;5001778;28;20293;-75
2020/12/03 09:46:54;;;;;;;56.50;18.13;;;0.40;99.90;;;;;;5022241;28;20202;-75
2020/12/03 09:49:21;;;;;;;44.72;17.70;;;0.30;99.90;;;;;;5020949;28;21674;-75
2020/12/03 09:51:47;;;;;;;55.28;17.58;;;0.30;99.90;;;;;;5003540;28;20194;-74
2020/12/03 09:54:13;;;;;;;47.97;17.60;;;0.30;99.90;;;;;;5021776;28;20217;-74
2020/12/03 09:56:40;;;;;;;48.38;18.73;;;0.40;99.90;;;;;;5010749;28;20209;-75
2020/12/03 09:59:12;;;;;;;59.25;19.30;;;0.40;99.90;;;;;;5024044;28;20623;-74
2020/12/03 10:01:46;;;;;;;50.92;18.85;;;0.40;99.90;;;;;;5024121;28;20225;-75
2020/12/03 10:04:37;;;;;;;55.58;18.98;;;0.40;99.90;;;;;;5003735;28;20254;-75
2020/12/03 10:07:35;;;;;;;50.55;18.45;;;0.30;99.90;;;;;;5008888;28;20735;-74
2020/12/03 10:10:36;;;;;;;49.05;18.27;;;0.30;99.90;;;;;;5025514;28;20224;-77
2020/12/03 10:13:13;;;;;;;52.10;17.05;;;0.30;99.90;;;;;;5025128;28;20298;-76
2020/12/03 10:16:07;;;;;;;50.33;18.98;;;0.40;99.90;;;;;;5023211;28;20228;-74
2020/12/03 10:18:54;;;;;;;50.78;18.67;;;0.30;99.90;;;;;;5021600;28;20288;-77
2020/12/03 10:21:22;;;;;;;57.08;19.38;;;0.30;99.90;;;;;;5006497;28;20202;-74
2020/12/03 10:24:15;;;;;;;51.95;18.38;;;0.30;99.90;;;;;;5006926;28;20194;-74
2020/12/03 10:26:50;;;;;;;53.00;19.02;;;0.30;99.90;;;;;;5027151;28;20285;-72
2020/12/03 10:29:31;;;;;;;67.28;20.02;;;0.30;99.90;;;;;;5026327;28;20213;-75
2020/12/03 10:32:09;;;;;;;57.30;19.50;;;0.30;99.90;;;;;;5025403;28;20260;-75
2020/12/03 10:34:43;;;;;;;55.38;18.98;;;0.30;99.90;;;;;;5024052;28;20190;-76
2020/12/03 10:37:35;;;;;;;57.05;19.90;;;0.30;99.90;;;;;;5023707;28;20206;-76
2020/12/03 10:40:07;;;;;;;59.40;19.80;;;0.30;99.90;;;;;;5013954;28;20218;-74
2020/12/03 10:42:37;;;;;;;53.28;19.05;;;0.30;99.90;;;;;;5023033;28;20202;-74
2020/12/03 10:45:13;;;;;;;58.17;19.83;;;0.30;99.90;;;;;;5028314;28;20284;-75
2020/12/03 10:47:50;;;;;;;51.80;19.67;;;0.30;99.90;;;;;;5019710;28;20210;-74
2020/12/03 10:50:17;;;;;;;58.67;20.08;;;0.30;99.90;;;;;;5022207;28;20201;-74
2020/12/03 10:52:45;;;;;;;54.75;19.95;;;0.40;99.90;;;;;;5025859;28;20214;-73
2020/12/03 10:55:18;;;;;;;55.30;20.23;;;0.30;99.90;;;;;;5021589;28;20714;-74
2020/12/03 10:57:58;;;;;;;57.63;18.95;;;0.20;99.90;;;;;;5020916;28;20202;-73
2020/12/03 11:00:24;;;;;;;51.67;18.90;;;0.20;99.90;;;;;;5022027;28;20600;-74
2020/12/03 11:02:55;;;;;;;58.88;20.08;;;0.20;99.90;;;;;;5021569;28;20565;-74
2020/12/03 11:05:21;;;;;;;53.45;19.10;;;0.20;99.90;;;;;;5004808;28;20252;-73
2020/12/03 11:07:54;;;;;;;60.33;20.80;;;0.30;99.90;;;;;;5022008;28;20575;-74
2020/12/03 11:10:21;;;;;;;58.70;20.23;;;0.30;99.90;;;;;;5020878;28;20201;-75
2020/12/03 11:12:50;;;;;;;60.08;19.40;;;0.30;99.90;;;;;;5021764;28;20739;-76
2020/12/03 11:15:20;;;;;;;46.90;17.30;;;0.30;99.90;;;;;;5018914;28;20234;-73
2020/12/03 11:17:54;;;;;;;56.35;19.88;;;0.30;99.90;;;;;;5009084;28;20190;-73
2020/12/03 11:20:21;;;;;;;54.30;18.13;;;0.30;99.90;;;;;;5021609;28;20292;-75
2020/12/03 11:23:05;;;;;;;61.97;20.08;;;0.20;99.90;;;;;;5010839;28;20202;-74
2020/12/03 11:25:33;;;;;;;58.22;20.08;;;0.20;99.90;;;;;;5023605;28;20205;-74
2020/12/03 11:28:09;;;;;;;63.13;19.42;;;0.20;99.90;;;;;;5027500;28;20320;-75
2020/12/03 11:30:35;;;;;;;53.60;18.80;;;0.20;99.90;;;;;;5020971;28;20205;-74
2020/12/03 11:33:01;;;;;;;64.65;20.05;;;0.20;99.90;;;;;;5020175;28;20191;-74
2020/12/03 11:35:29;;;;;;;52.75;19.67;;;0.20;99.90;;;;;;5021157;28;20199;-74
2020/12/03 11:37:57;;;;;;;61.67;19.92;;;0.30;99.90;;;;;;5019478;28;20195;-75
2020/12/03 11:40:48;;;;;;;54.70;18.98;;;0.30;99.90;;;;;;5021457;28;20206;-74
2020/12/03 11:48:37;;;;;;;61.58;19.13;;;0.30;99.90;;;;;;5023159;28;20248;-74
2020/12/03 11:51:03;;;;;;;56.10;18.92;;;0.30;99.90;;;;;;5025829;28;20195;-75
2020/12/03 11:53:31;;;;;;;53.50;19.27;;;0.30;99.90;;;;;;5024381;28;20633;-74
2020/12/03 11:55:56;;;;;;;57.58;20.48;;;0.30;99.90;;;;;;5021944;28;20252;-73
2020/12/03 11:58:30;;;;;;;54.47;17.77;;;0.30;99.90;;;;;;5004957;28;20199;-74
2020/12/03 12:01:13;;;;;;;56.35;18.60;;;0.30;99.90;;;;;;5002051;28;20233;-74
2020/12/03 12:03:42;;;;;;;59.97;18.88;;;0.40;99.90;;;;;;5022351;28;20568;-74
2020/12/03 12:06:15;;;;;;;52.53;19.98;;;0.30;99.90;;;;;;5005617;28;20198;-75
2020/12/03 12:08:51;;;;;;;54.85;19.27;;;0.40;99.90;;;;;;5004856;28;20215;-74
2020/12/03 12:11:22;;;;;;;63.15;19.33;;;0.30;99.90;;;;;;5022854;28;20191;-74
2020/12/03 12:13:52;;;;;;;63.65;19.48;;;0.30;99.90;;;;;;4998042;28;20195;-74
2020/12/03 12:16:18;;;;;;;63.88;19.58;;;0.30;99.90;;;;;;5019917;28;20198;-75
2020/12/03 12:18:47;;;;;;;51.50;18.70;;;0.30;99.90;;;;;;5007269;28;20574;-74
2020/12/03 12:21:12;;;;;;;56.28;19.45;;;0.30;99.90;;;;;;5005284;28;20259;-74
2020/12/03 12:23:38;;;;;;;59.60;20.20;;;0.30;99.90;;;;;;5027133;28;20233;-74
2020/12/03 12:26:04;;;;;;;53.65;18.50;;;0.30;99.90;;;;;;5026904;28;20255;-74
2020/12/03 12:28:29;;;;;;;52.75;18.65;;;0.30;99.90;;;;;;5021047;28;20218;-75
2020/12/03 12:30:55;;;;;;;58.25;19.33;;;0.30;99.90;;;;;;5002375;28;20190;-75
2020/12/03 12:33:21;;;;;;;52.40;17.83;;;0.30;99.90;;;;;;5017910;28;20656;-74
2020/12/03 12:35:47;;;;;;;61.08;18.55;;;0.30;99.90;;;;;;5024571;28;20221;-74
2020/12/03 12:38:13;;;;;;;57.83;19.35;;;0.40;99.90;;;;;;5009041;28;20234;-74
2020/12/03 12:40:39;;;;;;;66.82;20.70;;;0.40;99.90;;;;;;5026442;28;20201;-74
2020/12/03 12:43:05;;;;;;;53.92;18.88;;;0.30;99.90;;;;;;5008309;28;20198;-75
2020/12/03 12:45:31;;;;;;;57.65;19.10;;;0.40;99.90;;;;;;5023131;28;20289;-74
2020/12/03 12:47:57;;;;;;;57.42;18.98;;;0.30;99.90;;;;;;5017620;28;20333;-74
2020/12/03 12:50:23;;;;;;;57.17;19.25;;;0.40;99.90;;;;;;5021639;28;20197;-75
2020/12/03 12:52:49;;;;;;;58.65;19.60;;;0.40;99.90;;;;;;5003239;28;20190;-75
2020/12/03 12:55:14;;;;;;;59.90;19.38;;;0.30;99.90;;;;;;5020482;28;20520;-74
2020/12/03 12:57:40;;;;;;;55.67;19.50;;;0.40;99.90;;;;;;5004966;28;20233;-75
2020/12/03 13:00:06;;;;;;;54.15;18.35;;;0.40;99.90;;;;;;5003062;28;20217;-75
2020/12/03 13:02:32;;;;;;;60.13;18.95;;;0.40;99.90;;;;;;5019818;28;20226;-73
2020/12/03 13:04:57;;;;;;;54.00;18.65;;;0.40;99.90;;;;;;5005213;28;20206;-74
2020/12/03 13:07:23;;;;;;;63.17;20.15;;;0.40;99.90;;;;;;5021970;28;20215;-74
2020/12/03 13:09:51;;;;;;;52.83;18.23;;;0.40;99.90;;;;;;5008091;28;20201;-74
2020/12/03 13:12:17;;;;;;;50.70;17.75;;;0.40;99.90;;;;;;5020677;28;20226;-75